Terminal Aerodrome Forecast
Issued by NWS

Home | Current Version | Previous Version | Text Only | Print | Product List | Glossary On
Versions: 1 2 3 4 5 6 7 8 9 10 11 12 13 14 15 16 17 18 19 20 21 22 23 24 25 26 27 28 29 30 31 32 33 34 35 36 37
000
FTUS43 KDLH 221600 AAC
TAFHIB
TAF AMD
KHIB 221610Z 2216/2312 VRB02KT 1 1/2SM BR OVC003
      TEMPO 2216/2218 3SM BR OVC006
     FM221800 20005KT 4SM BR OVC007
     FM222200 17005KT 6SM BR OVC012
     FM230200 15005KT 4SM BR OVC007
     FM230500 15007KT 2SM -FZDZ BR OVC004=

USA.gov is the U.S. government's official web portal to all federal, state and local government web resources and services.